PWSweather.com
Personal Weather Stations
Station Observations
LEONMETEO
LeonES 24008

LeonES 24008

Lat: 42.6055559, Lon: -5.5752249

Elevation: 2690

Station Type: La Crosse WS3600

Latest ConditionsUpdated 1:11:27 PM GMT+01:01 Sunday, Aug 28, 2016
Currently Today's Max Today's Min Today's Average
Temperature 78.6°F25.9°C 78.6°F25.9°C 62.2°F16.8°C 68.0°F20.0°C
Dew Point 59.5°F15.3°C 59.8°F15.4°C 54.8°F12.7°C 57.6°F14.2°C
Winds - N16091.8 kmh N Calm Calm - Calm Calm
Wind Gusts -- -- - -
Humidity 52% 78% 52% 70%
Pressure 29.92 in1013.2 mb 29.95 in1014.2 mb 29.90 in1012.5 mb -
Hour Temp Dew Point Humidity Winds Wind Gusts Pressure Precip Precip Rate Daily Precip Total
01:11 PM 78.6°F25.9°C 59.5°F15.3°C 52% - N16091.8 kmh N -- 29.92 in1013.2 mb 0.00 in0.0 mm 0.00 in0.0 mm 0.00 in0.0 mm
01:06 PM 78.4°F25.8°C 59.3°F15.2°C 52% - N16091.8 kmh N -- 29.92 in1013.2 mb 0.00 in0.0 mm 0.00 in0.0 mm 0.00 in0.0 mm
01:01 PM 78.4°F25.8°C 59.3°F15.2°C 52% - N16091.8 kmh N -- 29.93 in1013.5 mb 0.00 in0.0 mm 0.00 in0.0 mm 0.00 in0.0 mm
12:56 PM 77.9°F25.5°C 59.3°F15.2°C 53% - N16091.8 kmh N -- 29.92 in1013.2 mb 0.00 in0.0 mm 0.00 in0.0 mm 0.00 in0.0 mm
12:51 PM 77.7°F25.4°C 59.7°F15.4°C 54% - N16091.8 kmh N -- 29.93 in1013.5 mb 0.00 in0.0 mm 0.00 in0.0 mm 0.00 in0.0 mm
12:46 PM 77.3°F25.2°C 59.8°F15.4°C 55% - N16091.8 kmh N -- 29.93 in1013.5 mb 0.00 in0.0 mm 0.00 in0.0 mm 0.00 in0.0 mm
12:41 PM 76.8°F24.9°C 59.3°F15.2°C 55% - N16091.8 kmh N -- 29.93 in1013.5 mb 0.00 in0.0 mm 0.00 in0.0 mm 0.00 in0.0 mm
12:36 PM 76.8°F24.9°C 59.3°F15.2°C 55% - N16091.8 kmh N -- 29.93 in1013.5 mb 0.00 in0.0 mm 0.00 in0.0 mm 0.00 in0.0 mm
12:31 PM 76.8°F24.9°C 59.3°F15.2°C 55% - N16091.8 kmh N -- 29.94 in1013.9 mb 0.00 in0.0 mm 0.00 in0.0 mm 0.00 in0.0 mm
12:26 PM 76.4°F24.7°C 59.5°F15.3°C 56% - N16091.8 kmh N -- 29.94 in1013.9 mb 0.00 in0.0 mm 0.00 in0.0 mm 0.00 in0.0 mm
12:21 PM 76.2°F24.6°C 59.3°F15.2°C 56% - N16091.8 kmh N -- 29.94 in1013.9 mb 0.00 in0.0 mm 0.00 in0.0 mm 0.00 in0.0 mm
12:16 PM 76.1°F24.5°C 59.7°F15.4°C 57% - N16091.8 kmh N -- 29.94 in1013.9 mb 0.00 in0.0 mm 0.00 in0.0 mm 0.00 in0.0 mm
12:11 PM 75.7°F24.3°C 59.4°F15.2°C 57% - N16091.8 kmh N -- 29.94 in1013.9 mb 0.00 in0.0 mm 0.00 in0.0 mm 0.00 in0.0 mm
12:06 PM 75.3°F24.1°C 59.0°F15.0°C 57% - N16091.8 kmh N -- 29.94 in1013.9 mb 0.00 in0.0 mm 0.00 in0.0 mm 0.00 in0.0 mm
12:01 PM 75.2°F24.0°C 58.9°F14.9°C 57% - N16091.8 kmh N -- 29.94 in1013.9 mb 0.00 in0.0 mm 0.00 in0.0 mm 0.00 in0.0 mm
11:56 AM 74.8°F23.8°C 59.0°F15.0°C 58% - N16091.8 kmh N -- 29.94 in1013.9 mb 0.00 in0.0 mm 0.00 in0.0 mm 0.00 in0.0 mm
11:51 AM 74.8°F23.8°C 59.0°F15.0°C 58% - N16091.8 kmh N -- 29.94 in1013.9 mb 0.00 in0.0 mm 0.00 in0.0 mm 0.00 in0.0 mm
11:45 AM 74.4°F23.6°C 58.7°F14.8°C 58% - N16091.8 kmh N -- 29.94 in1013.9 mb 0.00 in0.0 mm 0.00 in0.0 mm 0.00 in0.0 mm
11:41 AM 74.3°F23.5°C 58.5°F14.7°C 58% - N16091.8 kmh N -- 29.94 in1013.9 mb 0.00 in0.0 mm 0.00 in0.0 mm 0.00 in0.0 mm
11:35 AM 74.1°F23.4°C 58.8°F14.9°C 59% - N16091.8 kmh N -- 29.94 in1013.9 mb 0.00 in0.0 mm 0.00 in0.0 mm 0.00 in0.0 mm
11:30 AM 73.9°F23.3°C 58.6°F14.8°C 59% - N16091.8 kmh N -- 29.95 in1014.2 mb 0.00 in0.0 mm 0.00 in0.0 mm 0.00 in0.0 mm
11:25 AM 73.5°F23.1°C 58.8°F14.9°C 60% - N16091.8 kmh N -- 29.94 in1013.9 mb 0.00 in0.0 mm 0.00 in0.0 mm 0.00 in0.0 mm
11:20 AM 73.4°F23.0°C 58.6°F14.8°C 60% - N16091.8 kmh N -- 29.95 in1014.2 mb 0.00 in0.0 mm 0.00 in0.0 mm 0.00 in0.0 mm
11:15 AM 73.2°F22.9°C 58.4°F14.7°C 60% - N16091.8 kmh N -- 29.94 in1013.9 mb 0.00 in0.0 mm 0.00 in0.0 mm 0.00 in0.0 mm
11:10 AM 73.0°F22.8°C 58.7°F14.8°C 61% - N16091.8 kmh N -- 29.94 in1013.9 mb 0.00 in0.0 mm 0.00 in0.0 mm 0.00 in0.0 mm
11:05 AM 72.8°F22.7°C 58.6°F14.8°C 61% - N16091.8 kmh N -- 29.94 in1013.9 mb 0.00 in0.0 mm 0.00 in0.0 mm 0.00 in0.0 mm
11:00 AM 72.5°F22.5°C 58.7°F14.8°C 62% - N16091.8 kmh N -- 29.94 in1013.9 mb 0.00 in0.0 mm 0.00 in0.0 mm 0.00 in0.0 mm
10:55 AM 72.3°F22.4°C 58.5°F14.7°C 62% - N16091.8 kmh N -- 29.94 in1013.9 mb 0.00 in0.0 mm 0.00 in0.0 mm 0.00 in0.0 mm
10:50 AM 72.3°F22.4°C 58.5°F14.7°C 62% - N16091.8 kmh N -- 29.95 in1014.2 mb 0.00 in0.0 mm 0.00 in0.0 mm 0.00 in0.0 mm
10:45 AM 72.1°F22.3°C 58.3°F14.6°C 62% - N16091.8 kmh N -- 29.95 in1014.2 mb 0.00 in0.0 mm 0.00 in0.0 mm 0.00 in0.0 mm
10:40 AM 71.7°F22.1°C 58.4°F14.7°C 63% - N16091.8 kmh N -- 29.94 in1013.9 mb 0.00 in0.0 mm 0.00 in0.0 mm 0.00 in0.0 mm
10:35 AM 71.6°F22.0°C 58.3°F14.6°C 63% - N16091.8 kmh N -- 29.94 in1013.9 mb 0.00 in0.0 mm 0.00 in0.0 mm 0.00 in0.0 mm
10:30 AM 71.2°F21.8°C 58.4°F14.7°C 64% - N16091.8 kmh N -- 29.94 in1013.9 mb 0.00 in0.0 mm 0.00 in0.0 mm 0.00 in0.0 mm
10:25 AM 71.0°F21.7°C 58.6°F14.8°C 65% - N16091.8 kmh N -- 29.94 in1013.9 mb 0.00 in0.0 mm 0.00 in0.0 mm 0.00 in0.0 mm
10:20 AM 70.8°F21.6°C 58.4°F14.7°C 65% - N16091.8 kmh N -- 29.94 in1013.9 mb 0.00 in0.0 mm 0.00 in0.0 mm 0.00 in0.0 mm
10:15 AM 70.7°F21.5°C 58.7°F14.8°C 66% - N16091.8 kmh N -- 29.94 in1013.9 mb 0.00 in0.0 mm 0.00 in0.0 mm 0.00 in0.0 mm
10:10 AM 70.3°F21.3°C 58.4°F14.7°C 66% - N16091.8 kmh N -- 29.94 in1013.9 mb 0.00 in0.0 mm 0.00 in0.0 mm 0.00 in0.0 mm
10:05 AM 69.9°F21.1°C 58.4°F14.7°C 67% - N16091.8 kmh N -- 29.94 in1013.9 mb 0.00 in0.0 mm 0.00 in0.0 mm 0.00 in0.0 mm
10:00 AM 69.6°F20.9°C 58.9°F14.9°C 68% - N16091.8 kmh N -- 29.94 in1013.9 mb 0.00 in0.0 mm 0.00 in0.0 mm 0.00 in0.0 mm
09:55 AM 69.4°F20.8°C 59.2°F15.1°C 70% - N16091.8 kmh N -- 29.94 in1013.9 mb 0.00 in0.0 mm 0.00 in0.0 mm 0.00 in0.0 mm
09:50 AM 69.0°F20.6°C 58.8°F14.9°C 70% - N16091.8 kmh N -- 29.95 in1014.2 mb 0.00 in0.0 mm 0.00 in0.0 mm 0.00 in0.0 mm
09:44 AM 68.9°F20.5°C 59.1°F15.1°C 71% - N16091.8 kmh N -- 29.94 in1013.9 mb 0.00 in0.0 mm 0.00 in0.0 mm 0.00 in0.0 mm
09:39 AM 68.5°F20.3°C 59.1°F15.1°C 72% - N16091.8 kmh N -- 29.94 in1013.9 mb 0.00 in0.0 mm 0.00 in0.0 mm 0.00 in0.0 mm
09:34 AM 68.3°F20.2°C 59.0°F15.0°C 72% - N16091.8 kmh N -- 29.94 in1013.9 mb 0.00 in0.0 mm 0.00 in0.0 mm 0.00 in0.0 mm
09:29 AM 67.8°F19.9°C 58.8°F14.9°C 73% - N16091.8 kmh N -- 29.94 in1013.9 mb 0.00 in0.0 mm 0.00 in0.0 mm 0.00 in0.0 mm
09:24 AM 67.6°F19.8°C 58.6°F14.8°C 73% - N16091.8 kmh N -- 29.94 in1013.9 mb 0.00 in0.0 mm 0.00 in0.0 mm 0.00 in0.0 mm
09:19 AM 67.2°F19.6°C 58.7°F14.8°C 74% - N16091.8 kmh N -- 29.94 in1013.9 mb 0.00 in0.0 mm 0.00 in0.0 mm 0.00 in0.0 mm
09:14 AM 66.9°F19.4°C 58.7°F14.8°C 75% - N16091.8 kmh N -- 29.94 in1013.9 mb 0.00 in0.0 mm 0.00 in0.0 mm 0.00 in0.0 mm
09:09 AM 66.3°F19.1°C 58.5°F14.7°C 75% - N16091.8 kmh N -- 29.94 in1013.9 mb 0.00 in0.0 mm 0.00 in0.0 mm 0.00 in0.0 mm
09:04 AM 66.0°F18.9°C 58.2°F14.6°C 76% - N16091.8 kmh N -- 29.94 in1013.9 mb 0.00 in0.0 mm 0.00 in0.0 mm 0.00 in0.0 mm
08:59 AM 65.4°F18.6°C 58.0°F14.4°C 77% - N16091.8 kmh N -- 29.94 in1013.9 mb 0.00 in0.0 mm 0.00 in0.0 mm 0.00 in0.0 mm
08:54 AM 65.1°F18.4°C 57.7°F14.3°C 77% - N16091.8 kmh N -- 29.94 in1013.9 mb 0.00 in0.0 mm 0.00 in0.0 mm 0.00 in0.0 mm
08:49 AM 64.9°F18.3°C 57.5°F14.2°C 77% - N16091.8 kmh N -- 29.94 in1013.9 mb 0.00 in0.0 mm 0.00 in0.0 mm 0.00 in0.0 mm
08:44 AM 64.2°F17.9°C 57.2°F14.0°C 77% - N16091.8 kmh N -- 29.94 in1013.9 mb 0.00 in0.0 mm 0.00 in0.0 mm 0.00 in0.0 mm
08:39 AM 64.0°F17.8°C 57.0°F13.9°C 78% - N16091.8 kmh N -- 29.94 in1013.9 mb 0.00 in0.0 mm 0.00 in0.0 mm 0.00 in0.0 mm
08:34 AM 63.8°F17.7°C 56.8°F13.8°C 78% - N16091.8 kmh N -- 29.94 in1013.9 mb 0.00 in0.0 mm 0.00 in0.0 mm 0.00 in0.0 mm
08:29 AM 63.5°F17.5°C 56.4°F13.6°C 78% - N16091.8 kmh N -- 29.94 in1013.9 mb 0.00 in0.0 mm 0.00 in0.0 mm 0.00 in0.0 mm
08:24 AM 63.3°F17.4°C 56.3°F13.5°C 78% - N16091.8 kmh N -- 29.94 in1013.9 mb 0.00 in0.0 mm 0.00 in0.0 mm 0.00 in0.0 mm
08:19 AM 63.1°F17.3°C 56.1°F13.4°C 78% - N16091.8 kmh N -- 29.93 in1013.5 mb 0.00 in0.0 mm 0.00 in0.0 mm 0.00 in0.0 mm
08:14 AM 62.9°F17.2°C 55.9°F13.3°C 78% - N16091.8 kmh N -- 29.93 in1013.5 mb 0.00 in0.0 mm 0.00 in0.0 mm 0.00 in0.0 mm
08:09 AM 62.9°F17.2°C 55.9°F13.3°C 78% - N16091.8 kmh N -- 29.93 in1013.5 mb 0.00 in0.0 mm 0.00 in0.0 mm 0.00 in0.0 mm
08:04 AM 62.7°F17.1°C 55.7°F13.2°C 77% - N16091.8 kmh N -- 29.93 in1013.5 mb 0.00 in0.0 mm 0.00 in0.0 mm 0.00 in0.0 mm
07:59 AM 62.7°F17.1°C 55.7°F13.2°C 78% - N16091.8 kmh N -- 29.93 in1013.5 mb 0.00 in0.0 mm 0.00 in0.0 mm 0.00 in0.0 mm
07:54 AM 62.7°F17.1°C 55.7°F13.2°C 78% - N16091.8 kmh N -- 29.93 in1013.5 mb 0.00 in0.0 mm 0.00 in0.0 mm 0.00 in0.0 mm
07:49 AM 62.4°F16.9°C 55.4°F13.0°C 78% - N16091.8 kmh N -- 29.93 in1013.5 mb 0.00 in0.0 mm 0.00 in0.0 mm 0.00 in0.0 mm
07:44 AM 62.4°F16.9°C 55.4°F13.0°C 78% - N16091.8 kmh N -- 29.92 in1013.2 mb 0.00 in0.0 mm 0.00 in0.0 mm 0.00 in0.0 mm
07:39 AM 62.2°F16.8°C 54.8°F12.7°C 78% - N16091.8 kmh N -- 29.92 in1013.2 mb 0.00 in0.0 mm 0.00 in0.0 mm 0.00 in0.0 mm
07:34 AM 62.2°F16.8°C 54.8°F12.7°C 78% - N16091.8 kmh N -- 29.93 in1013.5 mb 0.00 in0.0 mm 0.00 in0.0 mm 0.00 in0.0 mm
07:29 AM 62.2°F16.8°C 54.8°F12.7°C 78% - N16091.8 kmh N -- 29.93 in1013.5 mb 0.00 in0.0 mm 0.00 in0.0 mm 0.00 in0.0 mm
07:24 AM 62.2°F16.8°C 54.8°F12.7°C 78% - N16091.8 kmh N -- 29.92 in1013.2 mb 0.00 in0.0 mm 0.00 in0.0 mm 0.00 in0.0 mm
07:19 AM 62.4°F16.9°C 55.0°F12.8°C 77% - N16091.8 kmh N -- 29.92 in1013.2 mb 0.00 in0.0 mm 0.00 in0.0 mm 0.00 in0.0 mm
07:14 AM 62.2°F16.8°C 55.2°F12.9°C 78% - N16091.8 kmh N -- 29.92 in1013.2 mb 0.00 in0.0 mm 0.00 in0.0 mm 0.00 in0.0 mm
07:09 AM 62.2°F16.8°C 54.8°F12.7°C 78% - N16091.8 kmh N -- 29.92 in1013.2 mb 0.00 in0.0 mm 0.00 in0.0 mm 0.00 in0.0 mm
07:03 AM 62.2°F16.8°C 54.8°F12.7°C 78% - N16091.8 kmh N -- 29.92 in1013.2 mb 0.00 in0.0 mm 0.00 in0.0 mm 0.00 in0.0 mm
06:59 AM 62.2°F16.8°C 54.8°F12.7°C 77% - N16091.8 kmh N -- 29.91 in1012.9 mb 0.00 in0.0 mm 0.00 in0.0 mm 0.00 in0.0 mm
06:54 AM 62.2°F16.8°C 54.8°F12.7°C 77% - N16091.8 kmh N -- 29.91 in1012.9 mb 0.00 in0.0 mm 0.00 in0.0 mm 0.00 in0.0 mm
06:49 AM 62.4°F16.9°C 55.0°F12.8°C 77% - N16091.8 kmh N -- 29.91 in1012.9 mb 0.00 in0.0 mm 0.00 in0.0 mm 0.00 in0.0 mm
06:44 AM 62.4°F16.9°C 55.0°F12.8°C 77% - N16091.8 kmh N -- 29.92 in1013.2 mb 0.00 in0.0 mm 0.00 in0.0 mm 0.00 in0.0 mm
06:39 AM 62.4°F16.9°C 55.0°F12.8°C 77% - N16091.8 kmh N -- 29.91 in1012.9 mb 0.00 in0.0 mm 0.00 in0.0 mm 0.00 in0.0 mm
06:33 AM 62.4°F16.9°C 55.0°F12.8°C 77% - N16091.8 kmh N -- 29.91 in1012.9 mb 0.00 in0.0 mm 0.00 in0.0 mm 0.00 in0.0 mm
06:28 AM 62.6°F17.0°C 55.2°F12.9°C 77% - N16091.8 kmh N -- 29.90 in1012.5 mb 0.00 in0.0 mm 0.00 in0.0 mm 0.00 in0.0 mm
06:23 AM 62.7°F17.1°C 55.4°F13.0°C 77% - N16091.8 kmh N -- 29.91 in1012.9 mb 0.00 in0.0 mm 0.00 in0.0 mm 0.00 in0.0 mm
06:18 AM 62.7°F17.1°C 55.4°F13.0°C 77% - N16091.8 kmh N -- 29.90 in1012.5 mb 0.00 in0.0 mm 0.00 in0.0 mm 0.00 in0.0 mm
06:13 AM 62.9°F17.2°C 55.5°F13.1°C 77% - N16091.8 kmh N -- 29.90 in1012.5 mb 0.00 in0.0 mm 0.00 in0.0 mm 0.00 in0.0 mm
06:08 AM 62.9°F17.2°C 55.5°F13.1°C 77% - N16091.8 kmh N -- 29.91 in1012.9 mb 0.00 in0.0 mm 0.00 in0.0 mm 0.00 in0.0 mm
06:03 AM 63.1°F17.3°C 55.4°F13.0°C 77% - N16091.8 kmh N -- 29.90 in1012.5 mb 0.00 in0.0 mm 0.00 in0.0 mm 0.00 in0.0 mm
05:58 AM 63.1°F17.3°C 55.4°F13.0°C 77% - N16091.8 kmh N -- 29.90 in1012.5 mb 0.00 in0.0 mm 0.00 in0.0 mm 0.00 in0.0 mm
05:53 AM 63.1°F17.3°C 55.4°F13.0°C 77% - N16091.8 kmh N -- 29.90 in1012.5 mb 0.00 in0.0 mm 0.00 in0.0 mm 0.00 in0.0 mm
05:48 AM 63.3°F17.4°C 55.5°F13.1°C 76% - N16091.8 kmh N -- 29.91 in1012.9 mb 0.00 in0.0 mm 0.00 in0.0 mm 0.00 in0.0 mm
05:43 AM 63.3°F17.4°C 55.5°F13.1°C 76% - N16091.8 kmh N -- 29.90 in1012.5 mb 0.00 in0.0 mm 0.00 in0.0 mm 0.00 in0.0 mm
05:38 AM 63.5°F17.5°C 55.7°F13.2°C 76% - N16091.8 kmh N -- 29.90 in1012.5 mb 0.00 in0.0 mm 0.00 in0.0 mm 0.00 in0.0 mm
05:33 AM 63.5°F17.5°C 55.7°F13.2°C 76% - N16091.8 kmh N -- 29.90 in1012.5 mb 0.00 in0.0 mm 0.00 in0.0 mm 0.00 in0.0 mm
05:28 AM 63.6°F17.6°C 55.9°F13.3°C 76% - N16091.8 kmh N -- 29.90 in1012.5 mb 0.00 in0.0 mm 0.00 in0.0 mm 0.00 in0.0 mm
05:23 AM 63.6°F17.6°C 55.9°F13.3°C 76% - N16091.8 kmh N -- 29.90 in1012.5 mb 0.00 in0.0 mm 0.00 in0.0 mm 0.00 in0.0 mm
05:18 AM 63.8°F17.7°C 56.1°F13.4°C 76% - N16091.8 kmh N -- 29.90 in1012.5 mb 0.00 in0.0 mm 0.00 in0.0 mm 0.00 in0.0 mm
05:13 AM 64.0°F17.8°C 56.3°F13.5°C 76% - N16091.8 kmh N -- 29.90 in1012.5 mb 0.00 in0.0 mm 0.00 in0.0 mm 0.00 in0.0 mm
05:08 AM 64.2°F17.9°C 56.4°F13.6°C 76% - N16091.8 kmh N -- 29.90 in1012.5 mb 0.00 in0.0 mm 0.00 in0.0 mm 0.00 in0.0 mm
05:03 AM 64.2°F17.9°C 56.4°F13.6°C 76% - N16091.8 kmh N -- 29.90 in1012.5 mb 0.00 in0.0 mm 0.00 in0.0 mm 0.00 in0.0 mm
04:58 AM 64.5°F18.1°C 56.4°F13.6°C 75% - N16091.8 kmh N -- 29.90 in1012.5 mb 0.00 in0.0 mm 0.00 in0.0 mm 0.00 in0.0 mm
04:53 AM 64.5°F18.1°C 56.4°F13.6°C 75% - N16091.8 kmh N -- 29.90 in1012.5 mb 0.00 in0.0 mm 0.00 in0.0 mm 0.00 in0.0 mm
04:48 AM 64.5°F18.1°C 56.4°F13.6°C 75% - N16091.8 kmh N -- 29.90 in1012.5 mb 0.00 in0.0 mm 0.00 in0.0 mm 0.00 in0.0 mm
04:43 AM 64.7°F18.2°C 56.6°F13.7°C 75% - N16091.8 kmh N -- 29.90 in1012.5 mb 0.00 in0.0 mm 0.00 in0.0 mm 0.00 in0.0 mm
04:38 AM 64.9°F18.3°C 56.4°F13.6°C 75% - N16091.8 kmh N -- 29.90 in1012.5 mb 0.00 in0.0 mm 0.00 in0.0 mm 0.00 in0.0 mm
04:33 AM 64.9°F18.3°C 56.4°F13.6°C 75% - N16091.8 kmh N -- 29.90 in1012.5 mb 0.00 in0.0 mm 0.00 in0.0 mm 0.00 in0.0 mm
04:28 AM 64.9°F18.3°C 56.4°F13.6°C 74% - N16091.8 kmh N -- 29.90 in1012.5 mb 0.00 in0.0 mm 0.00 in0.0 mm 0.00 in0.0 mm
04:23 AM 65.1°F18.4°C 56.6°F13.7°C 74% - N16091.8 kmh N -- 29.90 in1012.5 mb 0.00 in0.0 mm 0.00 in0.0 mm 0.00 in0.0 mm
04:18 AM 65.1°F18.4°C 56.6°F13.7°C 74% - N16091.8 kmh N -- 29.90 in1012.5 mb 0.00 in0.0 mm 0.00 in0.0 mm 0.00 in0.0 mm
04:13 AM 65.3°F18.5°C 56.7°F13.7°C 74% - N16091.8 kmh N -- 29.90 in1012.5 mb 0.00 in0.0 mm 0.00 in0.0 mm 0.00 in0.0 mm
04:08 AM 65.4°F18.6°C 56.9°F13.8°C 74% - N16091.8 kmh N -- 29.90 in1012.5 mb 0.00 in0.0 mm 0.00 in0.0 mm 0.00 in0.0 mm
04:03 AM 65.8°F18.8°C 57.2°F14.0°C 74% - N16091.8 kmh N -- 29.90 in1012.5 mb 0.00 in0.0 mm 0.00 in0.0 mm 0.00 in0.0 mm
03:58 AM 65.8°F18.8°C 57.2°F14.0°C 74% - N16091.8 kmh N -- 29.90 in1012.5 mb 0.00 in0.0 mm 0.00 in0.0 mm 0.00 in0.0 mm
03:53 AM 66.0°F18.9°C 57.4°F14.1°C 74% - N16091.8 kmh N -- 29.90 in1012.5 mb 0.00 in0.0 mm 0.00 in0.0 mm 0.00 in0.0 mm
03:48 AM 66.0°F18.9°C 57.4°F14.1°C 74% - N16091.8 kmh N -- 29.90 in1012.5 mb 0.00 in0.0 mm 0.00 in0.0 mm 0.00 in0.0 mm
03:43 AM 66.3°F19.1°C 57.8°F14.3°C 74% - N16091.8 kmh N -- 29.90 in1012.5 mb 0.00 in0.0 mm 0.00 in0.0 mm 0.00 in0.0 mm
03:38 AM 66.3°F19.1°C 57.8°F14.3°C 74% - N16091.8 kmh N -- 29.90 in1012.5 mb 0.00 in0.0 mm 0.00 in0.0 mm 0.00 in0.0 mm
03:33 AM 66.5°F19.2°C 57.6°F14.2°C 73% - N16091.8 kmh N -- 29.90 in1012.5 mb 0.00 in0.0 mm 0.00 in0.0 mm 0.00 in0.0 mm
03:28 AM 66.7°F19.3°C 57.7°F14.3°C 73% - N16091.8 kmh N -- 29.90 in1012.5 mb 0.00 in0.0 mm 0.00 in0.0 mm 0.00 in0.0 mm
03:23 AM 66.7°F19.3°C 57.7°F14.3°C 73% - N16091.8 kmh N -- 29.90 in1012.5 mb 0.00 in0.0 mm 0.00 in0.0 mm 0.00 in0.0 mm
03:17 AM 66.9°F19.4°C 57.5°F14.2°C 73% - N16091.8 kmh N -- 29.90 in1012.5 mb 0.00 in0.0 mm 0.00 in0.0 mm 0.00 in0.0 mm
03:12 AM 66.9°F19.4°C 57.5°F14.2°C 72% - N16091.8 kmh N -- 29.90 in1012.5 mb 0.00 in0.0 mm 0.00 in0.0 mm 0.00 in0.0 mm
03:07 AM 67.2°F19.6°C 57.9°F14.4°C 72% - N16091.8 kmh N -- 29.90 in1012.5 mb 0.00 in0.0 mm 0.00 in0.0 mm 0.00 in0.0 mm
03:02 AM 67.6°F19.8°C 58.3°F14.6°C 72% - N16091.8 kmh N -- 29.90 in1012.5 mb 0.00 in0.0 mm 0.00 in0.0 mm 0.00 in0.0 mm
02:57 AM 67.6°F19.8°C 58.3°F14.6°C 72% - N16091.8 kmh N -- 29.90 in1012.5 mb 0.00 in0.0 mm 0.00 in0.0 mm 0.00 in0.0 mm
02:52 AM 67.6°F19.8°C 58.3°F14.6°C 72% - N16091.8 kmh N -- 29.90 in1012.5 mb 0.00 in0.0 mm 0.00 in0.0 mm 0.00 in0.0 mm
02:47 AM 67.8°F19.9°C 58.1°F14.5°C 71% - N16091.8 kmh N -- 29.90 in1012.5 mb 0.00 in0.0 mm 0.00 in0.0 mm 0.00 in0.0 mm
02:42 AM 68.0°F20.0°C 58.3°F14.6°C 71% - N16091.8 kmh N -- 29.90 in1012.5 mb 0.00 in0.0 mm 0.00 in0.0 mm 0.00 in0.0 mm
02:37 AM 68.1°F20.1°C 58.4°F14.7°C 71% - N16091.8 kmh N -- 29.91 in1012.9 mb 0.00 in0.0 mm 0.00 in0.0 mm 0.00 in0.0 mm
02:32 AM 68.3°F20.2°C 58.6°F14.8°C 71% - N16091.8 kmh N -- 29.91 in1012.9 mb 0.00 in0.0 mm 0.00 in0.0 mm 0.00 in0.0 mm
02:27 AM 68.3°F20.2°C 58.6°F14.8°C 71% - N16091.8 kmh N -- 29.91 in1012.9 mb 0.00 in0.0 mm 0.00 in0.0 mm 0.00 in0.0 mm
02:22 AM 68.5°F20.3°C 58.4°F14.7°C 71% - N16091.8 kmh N -- 29.91 in1012.9 mb 0.00 in0.0 mm 0.00 in0.0 mm 0.00 in0.0 mm
02:17 AM 68.5°F20.3°C 58.4°F14.7°C 71% - N16091.8 kmh N -- 29.90 in1012.5 mb 0.00 in0.0 mm 0.00 in0.0 mm 0.00 in0.0 mm
02:12 AM 68.5°F20.3°C 58.4°F14.7°C 70% - N16091.8 kmh N -- 29.90 in1012.5 mb 0.00 in0.0 mm 0.00 in0.0 mm 0.00 in0.0 mm
02:07 AM 68.7°F20.4°C 58.5°F14.7°C 70% - N16091.8 kmh N -- 29.90 in1012.5 mb 0.00 in0.0 mm 0.00 in0.0 mm 0.00 in0.0 mm
02:02 AM 68.7°F20.4°C 58.5°F14.7°C 70% - N16091.8 kmh N -- 29.90 in1012.5 mb 0.00 in0.0 mm 0.00 in0.0 mm 0.00 in0.0 mm
01:57 AM 68.9°F20.5°C 58.7°F14.8°C 70% - N16091.8 kmh N -- 29.90 in1012.5 mb 0.00 in0.0 mm 0.00 in0.0 mm 0.00 in0.0 mm
01:52 AM 68.9°F20.5°C 58.7°F14.8°C 70% - N16091.8 kmh N -- 29.91 in1012.9 mb 0.00 in0.0 mm 0.00 in0.0 mm 0.00 in0.0 mm
01:47 AM 68.9°F20.5°C 58.7°F14.8°C 70% - N16091.8 kmh N -- 29.91 in1012.9 mb 0.00 in0.0 mm 0.00 in0.0 mm 0.00 in0.0 mm
01:42 AM 69.0°F20.6°C 58.4°F14.7°C 70% - N16091.8 kmh N -- 29.91 in1012.9 mb 0.00 in0.0 mm 0.00 in0.0 mm 0.00 in0.0 mm
01:37 AM 69.0°F20.6°C 58.4°F14.7°C 69% - N16091.8 kmh N -- 29.91 in1012.9 mb 0.00 in0.0 mm 0.00 in0.0 mm 0.00 in0.0 mm
01:32 AM 69.4°F20.8°C 58.8°F14.9°C 69% - N16091.8 kmh N -- 29.91 in1012.9 mb 0.00 in0.0 mm 0.00 in0.0 mm 0.00 in0.0 mm
01:27 AM 69.4°F20.8°C 58.8°F14.9°C 69% - N16091.8 kmh N -- 29.91 in1012.9 mb 0.00 in0.0 mm 0.00 in0.0 mm 0.00 in0.0 mm
01:22 AM 69.6°F20.9°C 58.5°F14.7°C 69% - N16091.8 kmh N -- 29.90 in1012.5 mb 0.00 in0.0 mm 0.00 in0.0 mm 0.00 in0.0 mm
01:17 AM 69.8°F21.0°C 58.7°F14.8°C 68% - N16091.8 kmh N -- 29.90 in1012.5 mb 0.00 in0.0 mm 0.00 in0.0 mm 0.00 in0.0 mm
01:12 AM 69.8°F21.0°C 58.7°F14.8°C 68% - N16091.8 kmh N -- 29.90 in1012.5 mb 0.00 in0.0 mm 0.00 in0.0 mm 0.00 in0.0 mm
01:07 AM 69.9°F21.1°C 58.4°F14.7°C 68% - N16091.8 kmh N -- 29.90 in1012.5 mb 0.00 in0.0 mm 0.00 in0.0 mm 0.00 in0.0 mm
01:02 AM 69.9°F21.1°C 58.4°F14.7°C 68% - N16091.8 kmh N -- 29.90 in1012.5 mb 0.00 in0.0 mm 0.00 in0.0 mm 0.00 in0.0 mm
12:57 AM 69.9°F21.1°C 58.4°F14.7°C 68% - N16091.8 kmh N -- 29.90 in1012.5 mb 0.00 in0.0 mm 0.00 in0.0 mm 0.00 in0.0 mm
12:52 AM 69.9°F21.1°C 58.4°F14.7°C 67% - N16091.8 kmh N -- 29.90 in1012.5 mb 0.00 in0.0 mm 0.00 in0.0 mm 0.00 in0.0 mm
12:47 AM 70.1°F21.2°C 58.6°F14.8°C 67% - N16091.8 kmh N -- 29.90 in1012.5 mb 0.00 in0.0 mm 0.00 in0.0 mm 0.00 in0.0 mm
12:42 AM 70.1°F21.2°C 58.6°F14.8°C 67% - N16091.8 kmh N -- 29.90 in1012.5 mb 0.00 in0.0 mm 0.00 in0.0 mm 0.00 in0.0 mm
12:37 AM 70.3°F21.3°C 58.8°F14.9°C 67% - N16091.8 kmh N -- 29.90 in1012.5 mb 0.00 in0.0 mm 0.00 in0.0 mm 0.00 in0.0 mm
12:32 AM 70.3°F21.3°C 58.8°F14.9°C 67% - N16091.8 kmh N -- 29.90 in1012.5 mb 0.00 in0.0 mm 0.00 in0.0 mm 0.00 in0.0 mm
12:27 AM 70.3°F21.3°C 58.8°F14.9°C 66% - N16091.8 kmh N -- 29.91 in1012.9 mb 0.00 in0.0 mm 0.00 in0.0 mm 0.00 in0.0 mm
12:22 AM 70.3°F21.3°C 58.8°F14.9°C 67% - N16091.8 kmh N -- 29.90 in1012.5 mb 0.00 in0.0 mm 0.00 in0.0 mm 0.00 in0.0 mm
12:17 AM 70.5°F21.4°C 58.5°F14.7°C 66% - N16091.8 kmh N -- 29.90 in1012.5 mb 0.00 in0.0 mm 0.00 in0.0 mm 0.00 in0.0 mm
12:12 AM 70.5°F21.4°C 58.5°F14.7°C 66% - N16091.8 kmh N -- 29.90 in1012.5 mb 0.00 in0.0 mm 0.00 in0.0 mm 0.00 in0.0 mm
12:07 AM 70.7°F21.5°C 58.3°F14.6°C 66% - N16091.8 kmh N -- 29.90 in1012.5 mb 0.00 in0.0 mm 0.00 in0.0 mm 0.00 in0.0 mm
12:02 AM 70.7°F21.5°C 58.3°F14.6°C 65% - N16091.8 kmh N -- 29.90 in1012.5 mb 0.00 in0.0 mm 0.00 in0.0 mm 0.00 in0.0 mm